createdAt,value
2022-09-15T00:01:10.270Z,8.10
2022-09-15T00:03:38.060Z,8.50
2022-09-15T00:06:06.301Z,7.60
2022-09-15T00:08:33.913Z,7.63
2022-09-15T00:11:09.612Z,7.22
2022-09-15T00:13:38.953Z,7.45
2022-09-15T00:16:07.682Z,7.72
2022-09-15T00:18:36.402Z,7.38
2022-09-15T00:21:10.177Z,7.63
2022-09-15T00:23:38.197Z,7.82
2022-09-15T00:26:12.601Z,9.23
2022-09-15T00:28:41.646Z,8.60
2022-09-15T00:31:13.072Z,8.05
2022-09-15T00:33:41.393Z,7.93
2022-09-15T00:36:12.043Z,7.53
2022-09-15T00:38:40.291Z,8.45
2022-09-15T00:41:09.951Z,7.85
2022-09-15T00:43:48.687Z,8.35
2022-09-15T00:46:19.760Z,9.10
2022-09-15T00:48:56.286Z,8.23
2022-09-15T00:51:50.375Z,8.25
2022-09-15T00:54:32.618Z,9.02
2022-09-15T00:57:06.926Z,8.32
2022-09-15T00:59:37.245Z,7.90
2022-09-15T01:02:18.919Z,7.22
2022-09-15T01:04:46.940Z,9.53
2022-09-15T01:07:18.510Z,9.68
2022-09-15T01:09:56.994Z,9.88
2022-09-15T01:12:25.851Z,10.32
2022-09-15T01:14:53.299Z,9.73
2022-09-15T01:17:36.866Z,9.05
2022-09-15T01:20:17.201Z,8.00
2022-09-15T01:23:03.295Z,9.23
2022-09-15T01:25:49.197Z,8.70
2022-09-15T01:28:36.307Z,8.18
2022-09-15T01:31:29.480Z,8.27
2022-09-15T01:34:10.114Z,8.88
2022-09-15T01:36:55.734Z,9.13
2022-09-15T01:39:30.385Z,8.43
2022-09-15T01:42:02.089Z,8.05
2022-09-15T01:44:51.926Z,8.60
2022-09-15T01:47:21.042Z,7.75
2022-09-15T01:50:13.710Z,8.77
2022-09-15T01:52:46.986Z,8.98
2022-09-15T01:55:42.313Z,9.25
2022-09-15T01:58:09.759Z,7.90
2022-09-15T02:00:47.749Z,8.38
2022-09-15T02:03:44.687Z,9.05
2022-09-15T02:06:43.175Z,9.80
2022-09-15T02:09:20.875Z,9.35
2022-09-15T02:11:59.096Z,8.52
2022-09-15T02:14:52.238Z,9.60
2022-09-15T02:17:21.302Z,9.88
2022-09-15T02:19:57.779Z,9.75
2022-09-15T02:22:29.102Z,10.32
2022-09-15T02:25:08.096Z,9.38
2022-09-15T02:27:44.642Z,10.40
2022-09-15T02:30:15.707Z,9.32
2022-09-15T02:32:52.225Z,9.27
2022-09-15T02:35:19.881Z,8.63
2022-09-15T02:37:48.459Z,8.65
2022-09-15T02:40:16.011Z,7.78
2022-09-15T02:42:53.357Z,7.82
2022-09-15T02:45:22.372Z,9.63
2022-09-15T02:47:50.370Z,7.78
2022-09-15T02:50:18.951Z,8.00
2022-09-15T02:52:47.946Z,8.43
2022-09-15T02:55:16.360Z,8.23
2022-09-15T02:57:43.749Z,7.68
2022-09-15T03:00:15.699Z,7.68
2022-09-15T03:02:50.115Z,8.27
2022-09-15T03:05:19.885Z,7.63
2022-09-15T03:07:47.275Z,8.52
2022-09-15T03:10:14.911Z,8.43
2022-09-15T03:12:48.310Z,8.02
2022-09-15T03:15:18.381Z,8.15
2022-09-15T03:17:47.042Z,8.23
2022-09-15T03:20:23.293Z,6.25
2022-09-15T03:22:51.074Z,7.22
2022-09-15T03:25:18.602Z,7.68
2022-09-15T03:27:46.106Z,7.75
2022-09-15T03:30:14.198Z,8.65
2022-09-15T03:32:41.770Z,7.72
2022-09-15T03:35:09.819Z,8.52
2022-09-15T03:37:37.409Z,8.27
2022-09-15T03:40:05.396Z,7.72
2022-09-15T03:42:32.879Z,7.82
2022-09-15T03:45:00.341Z,8.02
2022-09-15T03:47:27.751Z,7.97
2022-09-15T03:49:55.325Z,7.93
2022-09-15T03:52:22.707Z,7.47
2022-09-15T03:54:50.192Z,8.57
2022-09-15T03:57:17.623Z,7.78
2022-09-15T03:59:45.299Z,7.68
2022-09-15T04:02:12.752Z,7.60
2022-09-15T04:04:40.146Z,7.55
2022-09-15T04:07:09.081Z,8.00
2022-09-15T04:09:37.373Z,7.13
2022-09-15T04:12:05.024Z,8.02
2022-09-15T04:14:34.312Z,7.07
2022-09-15T04:17:01.718Z,7.93
2022-09-15T04:19:29.490Z,7.03
2022-09-15T04:21:57.669Z,7.60
2022-09-15T04:24:25.038Z,7.35
2022-09-15T04:26:52.443Z,6.93
2022-09-15T04:29:20.025Z,8.10
2022-09-15T04:31:48.269Z,8.57
2022-09-15T04:34:15.797Z,7.80
2022-09-15T04:36:43.245Z,6.82
2022-09-15T04:39:10.611Z,6.97
2022-09-15T04:41:38.562Z,7.15
2022-09-15T04:44:05.938Z,7.90
2022-09-15T04:46:33.402Z,8.80
2022-09-15T04:49:00.800Z,8.15
2022-09-15T04:51:28.225Z,7.45
2022-09-15T04:53:55.620Z,8.48
2022-09-15T04:56:25.740Z,7.10
2022-09-15T04:59:04.018Z,7.65
2022-09-15T05:01:34.167Z,7.10
2022-09-15T05:04:05.940Z,6.95
2022-09-15T05:06:35.020Z,6.13
2022-09-15T05:09:09.020Z,6.60
2022-09-15T05:11:38.114Z,7.68
2022-09-15T05:14:05.918Z,7.38
2022-09-15T05:16:36.628Z,6.60
2022-09-15T05:19:04.761Z,5.80
2022-09-15T05:21:32.546Z,6.78
2022-09-15T05:23:59.972Z,14.75
2022-09-15T05:26:29.639Z,10.13
2022-09-15T05:28:57.839Z,7.00
2022-09-15T05:31:28.146Z,7.05
2022-09-15T05:33:55.633Z,6.25
2022-09-15T05:36:27.585Z,6.43
2022-09-15T05:38:58.751Z,6.05
2022-09-15T05:41:28.083Z,6.22
2022-09-15T05:43:57.207Z,7.80
2022-09-15T05:46:29.149Z,7.00
2022-09-15T05:48:58.408Z,6.57
2022-09-15T05:51:25.991Z,7.57
2022-09-15T05:53:53.702Z,7.03
2022-09-15T05:56:21.237Z,8.27
2022-09-15T05:58:49.432Z,6.55
2022-09-15T06:01:18.710Z,7.25
2022-09-15T06:03:46.718Z,7.18
2022-09-15T06:06:14.257Z,6.95
2022-09-15T06:08:57.982Z,7.55
2022-09-15T06:11:29.302Z,7.45
2022-09-15T06:14:00.103Z,6.72
2022-09-15T06:16:27.630Z,7.18
2022-09-15T06:18:55.142Z,6.35
2022-09-15T06:21:25.131Z,6.53
2022-09-15T06:23:58.171Z,8.70
2022-09-15T06:26:26.449Z,7.43
2022-09-15T06:28:59.344Z,8.88
2022-09-15T06:31:28.473Z,7.90
2022-09-15T06:33:57.714Z,9.75
2022-09-15T06:36:29.771Z,9.77
2022-09-15T06:38:58.450Z,9.93
2022-09-15T06:41:33.036Z,9.73
2022-09-15T06:44:21.093Z,9.48
2022-09-15T06:46:49.356Z,9.88
2022-09-15T06:49:17.127Z,9.18
2022-09-15T06:51:44.836Z,9.60
2022-09-15T06:54:12.272Z,8.82
2022-09-15T06:56:39.645Z,9.77
2022-09-15T06:59:07.386Z,8.95
2022-09-15T07:01:35.035Z,9.07
2022-09-15T07:04:08.326Z,8.85
2022-09-15T07:06:37.826Z,8.57
2022-09-15T07:09:06.337Z,11.13
2022-09-15T07:11:34.599Z,10.23
2022-09-15T07:14:01.994Z,9.57
2022-09-15T07:16:29.850Z,10.50
2022-09-15T07:19:00.451Z,11.23
2022-09-15T07:21:28.469Z,15.88
2022-09-15T07:24:01.473Z,16.70
2022-09-15T07:26:31.288Z,14.48
2022-09-15T07:29:01.264Z,17.55
2022-09-15T07:31:32.137Z,16.48
2022-09-15T07:34:01.052Z,22.80
2022-09-15T07:36:29.100Z,24.40
2022-09-15T07:38:57.150Z,26.15
2022-09-15T07:41:29.798Z,24.17
2022-09-15T07:43:59.956Z,23.55
2022-09-15T07:46:30.628Z,23.70
2022-09-15T07:48:58.141Z,22.52
2022-09-15T07:51:26.482Z,21.63
2022-09-15T07:53:54.575Z,21.40
2022-09-15T07:56:23.807Z,19.65
2022-09-15T07:58:51.381Z,20.13
2022-09-15T08:01:20.601Z,20.98
2022-09-15T08:03:50.662Z,18.02
2022-09-15T08:06:20.529Z,19.13
2022-09-15T08:08:49.111Z,17.42
2022-09-15T08:11:19.212Z,19.42
2022-09-15T08:13:47.975Z,18.95
2022-09-15T08:16:18.100Z,16.38
2022-09-15T08:18:45.796Z,16.55
2022-09-15T08:21:20.323Z,14.02
2022-09-15T08:23:52.654Z,14.63
2022-09-15T08:26:20.176Z,14.00
2022-09-15T08:28:48.364Z,12.15
2022-09-15T08:31:16.675Z,11.63
2022-09-15T08:33:49.683Z,11.38
2022-09-15T08:36:17.629Z,11.32
2022-09-15T08:38:46.152Z,10.82
2022-09-15T08:41:32.448Z,10.20
2022-09-15T08:44:17.334Z,10.48
2022-09-15T08:46:52.481Z,10.23
2022-09-15T08:49:50.030Z,11.45
2022-09-15T08:52:41.194Z,24.50
2022-09-15T08:55:41.516Z,10.20
2022-09-15T08:58:18.873Z,10.65
2022-09-15T09:00:52.246Z,8.07
2022-09-15T09:03:41.161Z,8.73
2022-09-15T09:06:47.713Z,7.78
2022-09-15T09:09:15.016Z,8.55
2022-09-15T09:12:00.474Z,7.45
2022-09-15T09:14:39.818Z,8.00
2022-09-15T09:17:13.305Z,9.40
2022-09-15T09:19:59.263Z,7.78
2022-09-15T09:22:32.049Z,8.32
2022-09-15T09:25:11.550Z,6.38
2022-09-15T09:27:49.687Z,5.38
2022-09-15T09:30:19.721Z,6.18
2022-09-15T09:33:08.007Z,5.90
2022-09-15T09:35:43.511Z,5.60
2022-09-15T09:38:12.435Z,5.93
2022-09-15T09:40:41.450Z,6.32
2022-09-15T09:43:09.781Z,4.68
2022-09-15T09:45:37.432Z,4.38
2022-09-15T09:48:15.451Z,4.05
2022-09-15T09:50:43.666Z,3.80
2022-09-15T09:53:22.924Z,6.38
2022-09-15T09:55:50.334Z,3.58
2022-09-15T09:58:23.411Z,3.78
2022-09-15T10:00:54.266Z,3.40
2022-09-15T10:03:29.434Z,3.00
2022-09-15T10:06:12.831Z,2.97
2022-09-15T10:08:53.452Z,2.90
2022-09-15T10:11:20.983Z,2.57
2022-09-15T10:13:54.742Z,3.25
2022-09-15T10:16:24.121Z,4.20
2022-09-15T10:18:57.593Z,3.53
2022-09-15T10:21:26.068Z,3.80
2022-09-15T10:23:53.606Z,3.60
2022-09-15T10:26:34.706Z,3.10
2022-09-15T10:29:17.910Z,2.75
2022-09-15T10:31:46.022Z,2.47
2022-09-15T10:34:39.450Z,3.03
2022-09-15T10:37:16.023Z,3.03
2022-09-15T10:39:56.940Z,3.20
2022-09-15T10:42:51.484Z,3.13
2022-09-15T10:45:32.552Z,2.90
2022-09-15T10:48:27.135Z,3.60
2022-09-15T10:51:06.233Z,2.70
2022-09-15T10:54:03.165Z,2.83
2022-09-15T10:56:43.063Z,3.03
2022-09-15T10:59:43.191Z,4.88
2022-09-15T11:02:49.690Z,3.50
2022-09-15T11:05:27.654Z,3.65
2022-09-15T11:08:20.566Z,4.00
2022-09-15T11:10:51.039Z,3.95
2022-09-15T11:13:34.047Z,3.92
2022-09-15T11:16:26.393Z,4.75
2022-09-15T11:19:01.871Z,4.53
2022-09-15T11:21:51.934Z,4.15
2022-09-15T11:25:10.579Z,5.65
2022-09-15T11:27:44.774Z,4.00
2022-09-15T11:30:30.778Z,9.20
2022-09-15T11:33:17.079Z,4.22
2022-09-15T11:35:56.506Z,5.03
2022-09-15T11:38:37.155Z,8.75
2022-09-15T11:41:49.564Z,4.97
2022-09-15T11:44:25.926Z,3.67
2022-09-15T11:47:20.633Z,4.00
2022-09-15T11:49:56.726Z,3.92
2022-09-15T11:53:00.290Z,4.03
2022-09-15T11:55:35.922Z,4.25
2022-09-15T11:58:33.005Z,4.32
2022-09-15T12:01:11.218Z,7.03
2022-09-15T12:03:53.633Z,3.78
2022-09-15T12:06:45.748Z,6.13
2022-09-15T12:09:16.796Z,4.60
2022-09-15T12:11:55.342Z,3.63
2022-09-15T12:14:43.539Z,3.50
2022-09-15T12:17:57.188Z,3.45
2022-09-15T12:20:46.427Z,3.83
2022-09-15T12:23:24.759Z,3.55
2022-09-15T12:26:10.770Z,3.28
2022-09-15T12:28:39.311Z,3.50
2022-09-15T12:31:30.911Z,3.30
2022-09-15T12:34:04.369Z,3.33
2022-09-15T12:36:37.565Z,3.92
2022-09-15T12:39:27.710Z,3.65
2022-09-15T12:42:00.281Z,9.23
2022-09-15T12:44:37.890Z,2.95
2022-09-15T12:47:17.310Z,3.15
2022-09-15T12:49:47.806Z,3.20
2022-09-15T12:52:16.550Z,6.93
2022-09-15T12:54:51.727Z,5.15
2022-09-15T12:57:37.970Z,2.95
2022-09-15T13:00:20.654Z,4.20
2022-09-15T13:02:50.275Z,5.00
2022-09-15T13:05:42.357Z,3.13
2022-09-15T13:08:31.855Z,3.25
2022-09-15T13:11:09.394Z,2.95
2022-09-15T13:13:45.428Z,3.65
2022-09-15T13:16:18.346Z,3.15
2022-09-15T13:18:47.545Z,3.10
2022-09-15T13:21:21.144Z,3.40
2022-09-15T13:23:52.867Z,3.80
2022-09-15T13:26:25.599Z,3.65
2022-09-15T13:28:56.340Z,3.53
2022-09-15T13:31:37.734Z,3.80
2022-09-15T13:40:59.860Z,3.30
2022-09-15T13:43:45.413Z,3.70
2022-09-15T13:46:24.890Z,3.08
2022-09-15T13:49:07.442Z,3.83
2022-09-15T13:51:35.771Z,2.95
2022-09-15T13:54:06.791Z,3.85
2022-09-15T13:56:40.005Z,3.85
2022-09-15T13:59:16.769Z,4.10
2022-09-15T14:01:45.328Z,3.40
2022-09-15T14:04:17.119Z,4.20
2022-09-15T14:06:49.951Z,5.35
2022-09-15T14:09:22.124Z,3.83
2022-09-15T14:11:53.658Z,3.97
2022-09-15T14:14:43.355Z,3.70
2022-09-15T14:17:26.765Z,4.00
2022-09-15T14:19:59.997Z,4.72
2022-09-15T14:22:32.282Z,4.80
2022-09-15T14:25:06.851Z,4.47
2022-09-15T14:27:36.563Z,3.60
2022-09-15T14:30:08.124Z,3.22
2022-09-15T14:32:43.944Z,3.88
2022-09-15T14:35:19.848Z,3.60
2022-09-15T14:38:05.829Z,4.07
2022-09-15T14:40:38.741Z,3.78
2022-09-15T14:43:31.298Z,3.33
2022-09-15T14:49:09.648Z,3.60
2022-09-15T14:51:37.680Z,3.45
2022-09-15T14:54:07.863Z,4.30
2022-09-15T14:56:37.737Z,3.83
2022-09-15T14:59:15.292Z,3.35
2022-09-15T15:02:14.938Z,3.75
2022-09-15T15:04:46.955Z,3.47
2022-09-15T15:07:26.303Z,3.20
2022-09-15T15:10:01.164Z,3.47
2022-09-15T15:12:56.684Z,3.33
2022-09-15T15:15:24.354Z,3.78
2022-09-15T15:17:54.866Z,3.03
2022-09-15T15:20:30.171Z,2.90
2022-09-15T15:23:10.074Z,5.43
2022-09-15T15:25:41.724Z,4.50
2022-09-15T15:28:28.801Z,2.80
2022-09-15T15:31:16.235Z,2.75
2022-09-15T15:33:59.607Z,3.72
2022-09-15T15:36:29.747Z,3.58
2022-09-15T15:39:00.378Z,2.97
2022-09-15T15:41:30.541Z,3.00
2022-09-15T15:43:59.048Z,3.35
2022-09-15T15:46:53.858Z,2.83
2022-09-15T15:49:25.968Z,3.55
2022-09-15T15:54:21.371Z,3.58
2022-09-15T15:56:49.318Z,4.25
2022-09-15T15:59:18.014Z,5.07
2022-09-15T16:01:51.509Z,3.70
2022-09-15T16:04:19.239Z,3.67
2022-09-15T16:06:48.069Z,4.07
2022-09-15T16:09:18.485Z,5.05
2022-09-15T16:11:48.189Z,3.80
2022-09-15T16:14:17.941Z,3.65
2022-09-15T16:16:47.429Z,3.60
2022-09-15T16:19:15.138Z,3.08
2022-09-15T16:21:42.690Z,2.90
2022-09-15T16:24:15.116Z,3.00
2022-09-15T16:26:43.153Z,2.97
2022-09-15T16:29:11.039Z,2.63
2022-09-15T16:31:38.793Z,3.10
2022-09-15T16:34:06.325Z,3.10
2022-09-15T16:36:36.274Z,2.80
2022-09-15T16:39:03.939Z,4.40
2022-09-15T16:41:33.064Z,3.00
2022-09-15T16:44:04.083Z,2.80
2022-09-15T16:46:31.495Z,2.90
2022-09-15T16:48:59.088Z,2.97
2022-09-15T16:51:30.856Z,3.92
2022-09-15T16:53:59.498Z,3.22
2022-09-15T16:56:27.370Z,4.57
2022-09-15T16:59:00.443Z,4.68
2022-09-15T17:01:30.158Z,4.45
2022-09-15T17:03:57.937Z,3.75
2022-09-15T17:06:25.470Z,4.20
2022-09-15T17:08:53.128Z,2.67
2022-09-15T17:11:22.168Z,3.75
2022-09-15T17:13:50.852Z,3.47
2022-09-15T17:16:21.164Z,2.80
2022-09-15T17:18:49.746Z,2.95
2022-09-15T17:21:19.708Z,3.58
2022-09-15T17:23:49.266Z,4.07
2022-09-15T17:26:21.716Z,6.55
2022-09-15T17:28:49.452Z,6.70
2022-09-15T17:31:19.545Z,7.95
2022-09-15T17:33:47.699Z,6.00
2022-09-15T17:36:15.872Z,4.68
2022-09-15T17:38:45.345Z,7.13
2022-09-15T17:41:17.930Z,5.78
2022-09-15T17:43:46.260Z,4.03
2022-09-15T17:46:13.916Z,4.13
2022-09-15T17:48:43.312Z,2.97
2022-09-15T17:51:18.338Z,2.75
2022-09-15T17:53:48.307Z,4.15
2022-09-15T17:56:17.316Z,3.45
2022-09-15T17:58:45.815Z,3.20
2022-09-15T18:01:14.752Z,8.15
2022-09-15T18:03:44.799Z,4.78
2022-09-15T18:06:12.585Z,6.25
2022-09-15T18:08:40.067Z,3.53
2022-09-15T18:11:07.920Z,3.55
2022-09-15T18:13:35.975Z,3.15
2022-09-15T18:16:05.773Z,3.88
2022-09-15T18:18:33.680Z,4.55
2022-09-15T18:21:01.485Z,3.70
2022-09-15T18:23:29.648Z,3.78
2022-09-15T18:25:57.601Z,3.60
2022-09-15T18:28:25.096Z,4.65
2022-09-15T18:30:52.778Z,3.85
2022-09-15T18:33:25.420Z,3.88
2022-09-15T18:35:55.203Z,3.42
2022-09-15T18:38:23.795Z,3.95
2022-09-15T18:40:55.213Z,3.55
2022-09-15T18:43:25.250Z,4.82
2022-09-15T18:46:00.002Z,4.60
2022-09-15T18:48:28.164Z,4.32
2022-09-15T18:50:56.110Z,4.85
2022-09-15T18:53:23.898Z,4.45
2022-09-15T18:55:51.533Z,4.45
2022-09-15T18:58:22.696Z,4.40
2022-09-15T19:00:50.252Z,48.13
2022-09-15T19:03:17.666Z,4.32
2022-09-15T19:05:46.014Z,3.97
2022-09-15T19:08:13.594Z,4.63
2022-09-15T19:10:43.849Z,4.03
2022-09-15T19:13:13.911Z,5.40
2022-09-15T19:15:41.779Z,5.97
2022-09-15T19:18:09.157Z,6.75
2022-09-15T19:20:36.990Z,6.20
2022-09-15T19:23:04.393Z,6.53
2022-09-15T19:25:32.179Z,5.00
2022-09-15T19:27:59.591Z,4.45
2022-09-15T19:30:27.137Z,4.78
2022-09-15T19:32:54.554Z,4.57
2022-09-15T19:35:23.016Z,4.72
2022-09-15T19:37:53.092Z,5.15
2022-09-15T19:40:23.667Z,4.40
2022-09-15T19:42:51.327Z,4.95
2022-09-15T19:45:18.770Z,5.45
2022-09-15T19:47:46.199Z,5.30
2022-09-15T19:50:13.634Z,5.90
2022-09-15T19:52:41.036Z,38.58
2022-09-15T19:55:09.796Z,7.78
2022-09-15T19:57:41.869Z,4.88
2022-09-15T20:00:11.844Z,5.07
2022-09-15T20:02:39.801Z,4.85
2022-09-15T20:05:08.127Z,5.82
2022-09-15T20:07:35.602Z,4.15
2022-09-15T20:10:03.726Z,4.50
2022-09-15T20:12:31.339Z,4.25
2022-09-15T20:14:58.750Z,5.07
2022-09-15T20:17:26.215Z,4.25
2022-09-15T20:19:53.774Z,3.88
2022-09-15T20:22:21.182Z,4.55
2022-09-15T20:24:48.758Z,4.93
2022-09-15T20:27:17.057Z,4.43
2022-09-15T20:29:44.937Z,4.82
2022-09-15T20:32:12.383Z,5.47
2022-09-15T20:34:39.851Z,4.32
2022-09-15T20:37:07.271Z,4.10
2022-09-15T20:39:35.780Z,4.70
2022-09-15T20:42:03.240Z,4.43
2022-09-15T20:44:30.622Z,4.60
2022-09-15T20:46:58.134Z,5.30
2022-09-15T20:49:25.514Z,9.65
2022-09-15T20:51:53.026Z,5.68
2022-09-15T20:54:20.607Z,5.20
2022-09-15T20:56:48.002Z,4.78
2022-09-15T20:59:16.355Z,4.25
2022-09-15T21:01:43.778Z,4.80
2022-09-15T21:04:11.656Z,5.90
2022-09-15T21:06:39.363Z,5.13
2022-09-15T21:09:07.441Z,4.95
2022-09-15T21:11:35.503Z,5.38
2022-09-15T21:14:03.388Z,5.68
2022-09-15T21:16:31.401Z,5.70
2022-09-15T21:18:59.237Z,5.28
2022-09-15T21:21:30.111Z,5.85
2022-09-15T21:24:01.793Z,5.65
2022-09-15T21:26:31.603Z,6.43
2022-09-15T21:28:59.328Z,5.88
2022-09-15T21:31:30.026Z,5.70
2022-09-15T21:33:58.771Z,5.20
2022-09-15T21:36:31.377Z,5.72
2022-09-15T21:38:59.587Z,5.40
2022-09-15T21:41:30.056Z,6.32
2022-09-15T21:43:59.294Z,5.85
2022-09-15T21:46:29.707Z,6.65
2022-09-15T21:48:59.986Z,6.78
2022-09-15T21:51:29.121Z,5.93
2022-09-15T21:53:58.538Z,5.72
2022-09-15T21:56:27.747Z,6.03
2022-09-15T21:58:55.136Z,5.72
2022-09-15T22:01:25.785Z,5.25
2022-09-15T22:03:54.423Z,5.53
2022-09-15T22:06:27.748Z,5.53
2022-09-15T22:08:55.927Z,5.95
2022-09-15T22:11:23.909Z,4.65
2022-09-15T22:13:51.297Z,5.75
2022-09-15T22:16:21.391Z,5.78
2022-09-15T22:18:49.503Z,4.72
2022-09-15T22:21:22.434Z,5.30
2022-09-15T22:23:51.747Z,4.65
2022-09-15T22:26:21.946Z,4.90
2022-09-15T22:28:49.792Z,5.72
2022-09-15T22:31:19.317Z,4.30
2022-09-15T22:33:46.840Z,5.03
2022-09-15T22:36:17.148Z,4.10
2022-09-15T22:38:44.983Z,4.97
2022-09-15T22:41:15.140Z,4.60
2022-09-15T22:43:44.600Z,4.82
2022-09-15T22:46:12.213Z,4.72
2022-09-15T22:48:43.542Z,5.38
2022-09-15T22:51:11.992Z,5.60
2022-09-15T22:53:39.537Z,5.75
2022-09-15T22:56:14.454Z,6.68
2022-09-15T22:58:46.048Z,6.88
2022-09-15T23:01:18.982Z,5.78
2022-09-15T23:03:54.561Z,5.82
2022-09-15T23:06:22.957Z,5.95
2022-09-15T23:08:55.633Z,6.50
2022-09-15T23:11:24.058Z,6.32
2022-09-15T23:13:52.619Z,6.38
2022-09-15T23:16:20.102Z,5.13
2022-09-15T23:18:48.293Z,5.03
2022-09-15T23:21:15.787Z,6.20
2022-09-15T23:23:46.668Z,5.55
2022-09-15T23:26:16.674Z,5.35
2022-09-15T23:28:44.059Z,5.25
2022-09-15T23:31:12.982Z,5.88
2022-09-15T23:33:41.561Z,5.80
2022-09-15T23:36:14.923Z,5.00
2022-09-15T23:38:44.383Z,5.03
2022-09-15T23:41:13.387Z,5.22
2022-09-15T23:43:40.973Z,5.35
2022-09-15T23:46:08.820Z,5.80
2022-09-15T23:48:36.509Z,5.30
2022-09-15T23:51:04.573Z,5.50
2022-09-15T23:53:32.252Z,5.70
2022-09-15T23:55:59.680Z,5.47
2022-09-15T23:58:27.538Z,6.00
